sensor_id;sensor_type;location;lat;lon;timestamp;P1;durP1;ratioP1;P2;durP2;ratioP2
56519;SDS011;42420;53.586;10.052;2022-08-01T00:01:03;11.98;;;10.15;;
56519;SDS011;42420;53.586;10.052;2022-08-01T00:07:11;11.75;;;9.23;;
56519;SDS011;42420;53.586;10.052;2022-08-01T00:19:41;10.55;;;8.73;;
56519;SDS011;42420;53.586;10.052;2022-08-01T00:25:19;11.27;;;8.83;;
56519;SDS011;42420;53.586;10.052;2022-08-01T00:30:36;11.07;;;8.98;;
56519;SDS011;42420;53.586;10.052;2022-08-01T00:36:31;12.90;;;8.00;;
56519;SDS011;42420;53.586;10.052;2022-08-01T00:41:58;12.88;;;9.50;;
56519;SDS011;42420;53.586;10.052;2022-08-01T00:48:02;12.63;;;9.30;;
56519;SDS011;42420;53.586;10.052;2022-08-01T00:53:18;11.13;;;8.77;;
56519;SDS011;42420;53.586;10.052;2022-08-01T01:04:22;10.68;;;8.68;;
56519;SDS011;42420;53.586;10.052;2022-08-01T01:20:26;11.10;;;7.70;;
56519;SDS011;42420;53.586;10.052;2022-08-01T01:31:14;11.80;;;7.40;;
56519;SDS011;42420;53.586;10.052;2022-08-01T01:36:18;10.65;;;7.53;;
56519;SDS011;42420;53.586;10.052;2022-08-01T01:47:34;14.48;;;8.52;;
56519;SDS011;42420;53.586;10.052;2022-08-01T01:53:01;11.15;;;7.85;;
56519;SDS011;42420;53.586;10.052;2022-08-01T01:58:11;11.20;;;7.88;;
56519;SDS011;42420;53.586;10.052;2022-08-01T02:03:11;11.30;;;8.25;;
56519;SDS011;42420;53.586;10.052;2022-08-01T02:08:08;13.10;;;7.75;;
56519;SDS011;42420;53.586;10.052;2022-08-01T02:13:07;12.20;;;8.30;;
56519;SDS011;42420;53.586;10.052;2022-08-01T02:18:03;13.40;;;7.90;;
56519;SDS011;42420;53.586;10.052;2022-08-01T02:23:08;11.73;;;7.00;;
56519;SDS011;42420;53.586;10.052;2022-08-01T02:35:00;9.05;;;6.35;;
56519;SDS011;42420;53.586;10.052;2022-08-01T02:46:08;8.43;;;5.60;;
56519;SDS011;42420;53.586;10.052;2022-08-01T02:51:21;8.48;;;5.38;;
56519;SDS011;42420;53.586;10.052;2022-08-01T02:56:52;9.43;;;5.20;;
56519;SDS011;42420;53.586;10.052;2022-08-01T03:02:26;10.07;;;5.32;;
56519;SDS011;42420;53.586;10.052;2022-08-01T03:07:34;11.48;;;5.80;;
56519;SDS011;42420;53.586;10.052;2022-08-01T03:13:13;12.07;;;5.93;;
56519;SDS011;42420;53.586;10.052;2022-08-01T03:19:00;10.77;;;5.20;;
56519;SDS011;42420;53.586;10.052;2022-08-01T03:24:21;10.80;;;5.50;;
56519;SDS011;42420;53.586;10.052;2022-08-01T03:29:42;9.35;;;5.05;;
56519;SDS011;42420;53.586;10.052;2022-08-01T03:35:08;8.40;;;4.78;;
56519;SDS011;42420;53.586;10.052;2022-08-01T03:40:55;9.25;;;4.70;;
56519;SDS011;42420;53.586;10.052;2022-08-01T03:46:42;8.38;;;4.90;;
56519;SDS011;42420;53.586;10.052;2022-08-01T03:52:18;7.88;;;4.60;;
56519;SDS011;42420;53.586;10.052;2022-08-01T03:57:24;7.82;;;5.30;;
56519;SDS011;42420;53.586;10.052;2022-08-01T04:02:47;8.90;;;4.22;;
56519;SDS011;42420;53.586;10.052;2022-08-01T04:08:35;7.88;;;3.58;;
56519;SDS011;42420;53.586;10.052;2022-08-01T04:14:02;7.68;;;3.55;;
56519;SDS011;42420;53.586;10.052;2022-08-01T04:19:36;6.53;;;3.38;;
56519;SDS011;42420;53.586;10.052;2022-08-01T04:25:29;8.98;;;4.18;;
56519;SDS011;42420;53.586;10.052;2022-08-01T04:30:34;10.80;;;3.95;;
56519;SDS011;42420;53.586;10.052;2022-08-01T04:35:48;7.85;;;4.13;;
56519;SDS011;42420;53.586;10.052;2022-08-01T04:41:13;7.90;;;4.28;;
56519;SDS011;42420;53.586;10.052;2022-08-01T04:46:36;9.38;;;4.28;;
56519;SDS011;42420;53.586;10.052;2022-08-01T04:52:02;9.77;;;4.35;;
56519;SDS011;42420;53.586;10.052;2022-08-01T04:57:41;5.88;;;3.30;;
56519;SDS011;42420;53.586;10.052;2022-08-01T05:08:38;4.90;;;2.60;;
56519;SDS011;42420;53.586;10.052;2022-08-01T05:14:14;7.30;;;2.72;;
56519;SDS011;42420;53.586;10.052;2022-08-01T05:20:10;4.28;;;1.30;;
56519;SDS011;42420;53.586;10.052;2022-08-01T05:25:52;5.60;;;1.42;;
56519;SDS011;42420;53.586;10.052;2022-08-01T05:30:52;6.20;;;1.58;;
56519;SDS011;42420;53.586;10.052;2022-08-01T05:36:18;6.85;;;1.60;;
56519;SDS011;42420;53.586;10.052;2022-08-01T05:41:53;5.40;;;1.73;;
56519;SDS011;42420;53.586;10.052;2022-08-01T05:47:02;5.18;;;1.63;;
56519;SDS011;42420;53.586;10.052;2022-08-01T05:52:14;6.43;;;1.70;;
56519;SDS011;42420;53.586;10.052;2022-08-01T05:57:24;6.90;;;1.67;;
56519;SDS011;42420;53.586;10.052;2022-08-01T06:02:45;4.85;;;1.70;;
56519;SDS011;42420;53.586;10.052;2022-08-01T06:08:18;6.00;;;1.85;;
56519;SDS011;42420;53.586;10.052;2022-08-01T06:13:40;5.78;;;1.80;;
56519;SDS011;42420;53.586;10.052;2022-08-01T06:19:04;6.20;;;1.77;;
56519;SDS011;42420;53.586;10.052;2022-08-01T06:24:28;6.85;;;1.95;;
56519;SDS011;42420;53.586;10.052;2022-08-01T06:30:11;7.13;;;1.80;;
56519;SDS011;42420;53.586;10.052;2022-08-01T06:35:53;7.20;;;2.03;;
56519;SDS011;42420;53.586;10.052;2022-08-01T06:47:40;8.68;;;2.92;;
56519;SDS011;42420;53.586;10.052;2022-08-01T06:53:28;10.75;;;4.47;;
56519;SDS011;42420;53.586;10.052;2022-08-01T07:04:22;10.77;;;3.58;;
56519;SDS011;42420;53.586;10.052;2022-08-01T07:14:28;9.73;;;4.53;;
56519;SDS011;42420;53.586;10.052;2022-08-01T07:20:03;8.25;;;3.28;;
56519;SDS011;42420;53.586;10.052;2022-08-01T07:26:00;11.18;;;3.72;;
56519;SDS011;42420;53.586;10.052;2022-08-01T07:31:39;10.60;;;3.40;;
56519;SDS011;42420;53.586;10.052;2022-08-01T07:37:13;10.43;;;3.47;;
56519;SDS011;42420;53.586;10.052;2022-08-01T07:42:32;12.88;;;4.47;;
56519;SDS011;42420;53.586;10.052;2022-08-01T07:47:39;14.07;;;3.83;;
56519;SDS011;42420;53.586;10.052;2022-08-01T07:53:21;12.90;;;3.78;;
56519;SDS011;42420;53.586;10.052;2022-08-01T07:59:24;12.57;;;4.75;;
56519;SDS011;42420;53.586;10.052;2022-08-01T08:04:50;12.50;;;3.55;;
56519;SDS011;42420;53.586;10.052;2022-08-01T08:22:08;10.57;;;1.92;;
56519;SDS011;42420;53.586;10.052;2022-08-01T08:27:30;12.60;;;2.40;;
56519;SDS011;42420;53.586;10.052;2022-08-01T08:33:19;14.90;;;2.85;;
56519;SDS011;42420;53.586;10.052;2022-08-01T08:38:39;6.82;;;2.17;;
56519;SDS011;42420;53.586;10.052;2022-08-01T08:44:16;8.80;;;2.22;;
56519;SDS011;42420;53.586;10.052;2022-08-01T08:56:06;10.18;;;2.90;;
56519;SDS011;42420;53.586;10.052;2022-08-01T09:01:11;5.50;;;1.75;;
56519;SDS011;42420;53.586;10.052;2022-08-01T09:07:08;11.52;;;2.85;;
56519;SDS011;42420;53.586;10.052;2022-08-01T09:12:33;8.85;;;2.30;;
56519;SDS011;42420;53.586;10.052;2022-08-01T09:17:44;11.13;;;2.38;;
56519;SDS011;42420;53.586;10.052;2022-08-01T09:29:40;12.80;;;2.13;;
56519;SDS011;42420;53.586;10.052;2022-08-01T09:35:45;8.07;;;2.22;;
56519;SDS011;42420;53.586;10.052;2022-08-01T09:47:45;8.25;;;1.80;;
56519;SDS011;42420;53.586;10.052;2022-08-01T09:53:22;11.90;;;2.22;;
56519;SDS011;42420;53.586;10.052;2022-08-01T10:05:59;9.25;;;2.17;;
56519;SDS011;42420;53.586;10.052;2022-08-01T10:24:13;8.23;;;2.17;;
56519;SDS011;42420;53.586;10.052;2022-08-01T10:35:58;9.73;;;2.15;;
56519;SDS011;42420;53.586;10.052;2022-08-01T10:48:14;9.80;;;2.17;;
56519;SDS011;42420;53.586;10.052;2022-08-01T11:31:36;9.35;;;2.05;;
56519;SDS011;42420;53.586;10.052;2022-08-01T11:37:34;8.97;;;2.00;;
56519;SDS011;42420;53.586;10.052;2022-08-01T11:55:23;6.35;;;1.38;;
56519;SDS011;42420;53.586;10.052;2022-08-01T12:00:52;8.15;;;1.67;;
56519;SDS011;42420;53.586;10.052;2022-08-01T12:06:07;11.27;;;2.15;;
56519;SDS011;42420;53.586;10.052;2022-08-01T12:12:07;8.55;;;1.30;;
56519;SDS011;42420;53.586;10.052;2022-08-01T12:24:09;8.73;;;1.95;;
56519;SDS011;42420;53.586;10.052;2022-08-01T12:30:09;10.13;;;1.40;;
56519;SDS011;42420;53.586;10.052;2022-08-01T12:42:11;6.45;;;1.95;;
56519;SDS011;42420;53.586;10.052;2022-08-01T12:47:37;8.52;;;1.95;;
56519;SDS011;42420;53.586;10.052;2022-08-01T12:53:33;8.75;;;1.67;;
56519;SDS011;42420;53.586;10.052;2022-08-01T12:59:10;9.90;;;1.73;;
56519;SDS011;42420;53.586;10.052;2022-08-01T13:05:36;5.53;;;1.40;;
56519;SDS011;42420;53.586;10.052;2022-08-01T13:11:48;9.27;;;1.52;;
56519;SDS011;42420;53.586;10.052;2022-08-01T13:17:34;10.43;;;1.70;;
56519;SDS011;42420;53.586;10.052;2022-08-01T13:35:06;9.57;;;1.70;;
56519;SDS011;42420;53.586;10.052;2022-08-01T13:40:10;8.88;;;1.70;;
56519;SDS011;42420;53.586;10.052;2022-08-01T13:45:49;6.68;;;1.50;;
56519;SDS011;42420;53.586;10.052;2022-08-01T13:51:09;10.68;;;1.98;;
56519;SDS011;42420;53.586;10.052;2022-08-01T13:56:44;6.90;;;1.33;;
56519;SDS011;42420;53.586;10.052;2022-08-01T14:02:41;5.72;;;1.20;;
56519;SDS011;42420;53.586;10.052;2022-08-01T14:08:24;11.63;;;2.08;;
56519;SDS011;42420;53.586;10.052;2022-08-01T14:14:01;4.70;;;0.90;;
56519;SDS011;42420;53.586;10.052;2022-08-01T14:19:47;7.43;;;1.20;;
56519;SDS011;42420;53.586;10.052;2022-08-01T14:25:30;7.60;;;1.30;;
56519;SDS011;42420;53.586;10.052;2022-08-01T14:31:22;8.63;;;1.40;;
56519;SDS011;42420;53.586;10.052;2022-08-01T14:43:05;7.65;;;1.60;;
56519;SDS011;42420;53.586;10.052;2022-08-01T14:49:16;7.82;;;2.03;;
56519;SDS011;42420;53.586;10.052;2022-08-01T14:54:54;7.90;;;1.50;;
56519;SDS011;42420;53.586;10.052;2022-08-01T15:00:01;9.50;;;1.58;;
56519;SDS011;42420;53.586;10.052;2022-08-01T15:05:57;8.27;;;2.03;;
56519;SDS011;42420;53.586;10.052;2022-08-01T15:16:40;7.30;;;1.55;;
56519;SDS011;42420;53.586;10.052;2022-08-01T15:22:18;8.02;;;1.67;;
56519;SDS011;42420;53.586;10.052;2022-08-01T15:33:56;9.95;;;2.10;;
56519;SDS011;42420;53.586;10.052;2022-08-01T15:50:00;7.30;;;1.50;;
56519;SDS011;42420;53.586;10.052;2022-08-01T15:55:29;10.70;;;1.80;;
56519;SDS011;42420;53.586;10.052;2022-08-01T16:00:47;8.57;;;1.55;;
56519;SDS011;42420;53.586;10.052;2022-08-01T16:06:49;8.45;;;1.73;;
56519;SDS011;42420;53.586;10.052;2022-08-01T16:12:20;9.70;;;2.45;;
56519;SDS011;42420;53.586;10.052;2022-08-01T16:17:44;8.85;;;2.38;;
56519;SDS011;42420;53.586;10.052;2022-08-01T16:23:28;8.98;;;2.00;;
56519;SDS011;42420;53.586;10.052;2022-08-01T16:29:23;8.73;;;1.60;;
56519;SDS011;42420;53.586;10.052;2022-08-01T16:34:59;9.98;;;1.77;;
56519;SDS011;42420;53.586;10.052;2022-08-01T16:40:11;11.48;;;2.25;;
56519;SDS011;42420;53.586;10.052;2022-08-01T16:45:48;10.18;;;2.20;;
56519;SDS011;42420;53.586;10.052;2022-08-01T16:51:09;8.80;;;1.85;;
56519;SDS011;42420;53.586;10.052;2022-08-01T16:56:59;11.07;;;2.83;;
56519;SDS011;42420;53.586;10.052;2022-08-01T17:02:24;11.70;;;2.17;;
56519;SDS011;42420;53.586;10.052;2022-08-01T17:08:01;10.68;;;2.70;;
56519;SDS011;42420;53.586;10.052;2022-08-01T17:13:13;9.55;;;2.40;;
56519;SDS011;42420;53.586;10.052;2022-08-01T17:18:50;9.07;;;2.90;;
56519;SDS011;42420;53.586;10.052;2022-08-01T17:24:19;9.80;;;2.42;;
56519;SDS011;42420;53.586;10.052;2022-08-01T17:29:42;8.35;;;1.95;;
56519;SDS011;42420;53.586;10.052;2022-08-01T18:17:29;7.95;;;2.08;;
56519;SDS011;42420;53.586;10.052;2022-08-01T18:30:00;11.30;;;2.05;;
56519;SDS011;42420;53.586;10.052;2022-08-01T19:27:41;9.07;;;1.88;;
56519;SDS011;42420;53.586;10.052;2022-08-01T19:32:42;8.35;;;2.90;;
56519;SDS011;42420;53.586;10.052;2022-08-01T19:37:40;12.48;;;3.17;;
56519;SDS011;42420;53.586;10.052;2022-08-01T19:42:49;12.27;;;3.25;;
56519;SDS011;42420;53.586;10.052;2022-08-01T20:06:13;14.98;;;3.28;;
56519;SDS011;42420;53.586;10.052;2022-08-01T20:11:11;12.98;;;2.30;;
56519;SDS011;42420;53.586;10.052;2022-08-01T20:16:17;11.43;;;2.50;;
56519;SDS011;42420;53.586;10.052;2022-08-01T20:21:33;8.77;;;2.50;;
56519;SDS011;42420;53.586;10.052;2022-08-01T20:27:16;9.95;;;2.13;;
56519;SDS011;42420;53.586;10.052;2022-08-01T20:50:03;9.88;;;2.33;;
56519;SDS011;42420;53.586;10.052;2022-08-01T20:55:51;10.50;;;3.50;;
56519;SDS011;42420;53.586;10.052;2022-08-01T21:19:40;14.43;;;3.20;;
56519;SDS011;42420;53.586;10.052;2022-08-01T21:38:04;8.88;;;2.80;;
56519;SDS011;42420;53.586;10.052;2022-08-01T22:03:48;10.25;;;1.58;;
56519;SDS011;42420;53.586;10.052;2022-08-01T22:09:45;8.75;;;1.33;;
56519;SDS011;42420;53.586;10.052;2022-08-01T22:27:54;6.47;;;1.35;;
56519;SDS011;42420;53.586;10.052;2022-08-01T22:33:05;8.20;;;1.70;;
56519;SDS011;42420;53.586;10.052;2022-08-01T22:56:08;6.85;;;1.48;;
56519;SDS011;42420;53.586;10.052;2022-08-01T23:02:13;6.30;;;1.80;;
56519;SDS011;42420;53.586;10.052;2022-08-01T23:07:56;8.50;;;1.40;;
56519;SDS011;42420;53.586;10.052;2022-08-01T23:13:32;11.65;;;2.22;;
56519;SDS011;42420;53.586;10.052;2022-08-01T23:19:14;7.25;;;1.90;;
56519;SDS011;42420;53.586;10.052;2022-08-01T23:44:30;9.45;;;1.70;;
56519;SDS011;42420;53.586;10.052;2022-08-01T23:50:33;7.28;;;1.83;;
